createdAt,value
2022-08-22T00:02:00.956Z,57.18
2022-08-22T00:03:01.116Z,45.89
2022-08-22T00:03:15.495Z,57.07
2022-08-22T00:04:39.400Z,57.26
2022-08-22T00:07:40.613Z,56.94
2022-08-22T00:10:48.210Z,57.45
2022-08-22T00:13:35.521Z,57.34
2022-08-22T00:16:29.816Z,56.95
2022-08-22T00:19:05.380Z,57.09
2022-08-22T00:21:38.179Z,57.09
2022-08-22T00:24:47.969Z,57.50
2022-08-22T00:27:18.209Z,57.92
2022-08-22T00:29:51.111Z,57.81
2022-08-22T00:32:39.805Z,58.25
2022-08-22T00:35:30.482Z,57.94
2022-08-22T00:38:11.861Z,57.99
2022-08-22T00:40:53.643Z,58.06
2022-08-22T00:43:59.172Z,58.28
2022-08-22T00:46:40.384Z,58.13
2022-08-22T00:49:15.908Z,58.44
2022-08-22T00:52:13.889Z,58.87
2022-08-22T00:54:52.375Z,58.69
2022-08-22T00:57:54.341Z,58.64
2022-08-22T01:00:27.276Z,58.78
2022-08-22T01:03:33.052Z,58.78
2022-08-22T01:06:08.940Z,58.63
2022-08-22T01:08:50.049Z,58.44
2022-08-22T01:11:46.766Z,59.04
2022-08-22T01:14:34.834Z,58.58
2022-08-22T01:17:06.304Z,58.57
2022-08-22T01:19:54.148Z,58.89
2022-08-22T01:23:00.015Z,59.31
2022-08-22T01:26:01.154Z,58.74
2022-08-22T01:28:53.102Z,59.15
2022-08-22T01:31:47.792Z,58.77
2022-08-22T01:34:40.935Z,59.34
2022-08-22T01:37:13.750Z,59.08
2022-08-22T01:40:15.216Z,58.87
2022-08-22T01:43:08.233Z,59.20
2022-08-22T01:45:52.842Z,58.65
2022-08-22T01:48:37.250Z,59.69
2022-08-22T01:51:28.126Z,59.06
2022-08-22T01:54:04.008Z,59.07
2022-08-22T01:56:37.110Z,59.54
2022-08-22T01:59:15.865Z,59.52
2022-08-22T02:02:05.064Z,59.73
2022-08-22T02:05:01.322Z,59.57
2022-08-22T02:07:36.881Z,59.57
2022-08-22T02:10:10.919Z,59.84
2022-08-22T02:12:48.775Z,60.14
2022-08-22T02:15:24.211Z,59.65
2022-08-22T02:18:12.334Z,59.91
2022-08-22T02:21:13.226Z,59.27
2022-08-22T02:23:48.715Z,59.92
2022-08-22T02:26:26.877Z,59.72
2022-08-22T02:29:17.286Z,59.58
2022-08-22T02:31:59.252Z,60.02
2022-08-22T02:34:59.531Z,60.08
2022-08-22T02:37:51.744Z,60.40
2022-08-22T02:40:39.315Z,60.24
2022-08-22T02:43:23.132Z,60.42
2022-08-22T02:46:16.597Z,61.05
2022-08-22T02:48:50.380Z,60.53
2022-08-22T02:51:26.327Z,60.61
2022-08-22T02:54:10.735Z,60.77
2022-08-22T02:56:44.019Z,60.75
2022-08-22T02:59:19.251Z,60.36
2022-08-22T03:01:49.450Z,60.38
2022-08-22T03:04:33.708Z,60.16
2022-08-22T03:07:24.617Z,60.33
2022-08-22T03:10:18.021Z,60.45
2022-08-22T03:12:54.662Z,60.22
2022-08-22T03:15:34.101Z,60.97
2022-08-22T03:18:31.268Z,60.52
2022-08-22T03:21:15.679Z,60.52
2022-08-22T03:23:51.392Z,61.41
2022-08-22T03:26:41.702Z,61.30
2022-08-22T03:29:14.511Z,61.09
2022-08-22T03:32:07.256Z,61.27
2022-08-22T03:34:38.600Z,61.12
2022-08-22T03:37:23.346Z,61.59
2022-08-22T03:39:55.977Z,61.59
2022-08-22T03:42:31.484Z,61.96
2022-08-22T03:45:24.375Z,62.51
2022-08-22T03:48:22.898Z,62.35
2022-08-22T03:51:07.525Z,62.35
2022-08-22T03:54:02.574Z,62.18
2022-08-22T03:57:03.380Z,62.44
2022-08-22T03:59:56.750Z,62.52
2022-08-22T04:02:44.140Z,62.81
2022-08-22T04:05:38.687Z,62.21
2022-08-22T04:08:34.761Z,62.78
2022-08-22T04:11:31.615Z,62.92
2022-08-22T04:14:25.773Z,62.92
2022-08-22T04:17:22.269Z,63.04
2022-08-22T04:20:00.512Z,63.65
2022-08-22T04:22:55.042Z,64.29
2022-08-22T04:25:32.996Z,63.98
2022-08-22T04:28:05.881Z,63.93
2022-08-22T04:30:41.647Z,63.93
2022-08-22T04:33:25.945Z,63.69
2022-08-22T04:36:21.262Z,63.87
2022-08-22T04:38:56.644Z,63.42
2022-08-22T04:41:46.212Z,63.49
2022-08-22T04:44:21.930Z,63.68
2022-08-22T04:46:57.685Z,63.47
2022-08-22T04:49:39.404Z,64.13
2022-08-22T04:52:24.124Z,64.13
2022-08-22T04:55:28.399Z,63.71
2022-08-22T04:58:18.716Z,63.48
2022-08-22T05:00:54.074Z,63.74
2022-08-22T05:03:26.850Z,64.07
2022-08-22T05:05:58.869Z,64.12
2022-08-22T05:08:31.854Z,64.49
2022-08-22T05:11:05.542Z,64.32
2022-08-22T05:13:41.185Z,64.59
2022-08-22T05:16:18.214Z,64.62
2022-08-22T05:18:51.301Z,64.10
2022-08-22T05:21:27.019Z,64.23
2022-08-22T05:23:59.258Z,63.92
2022-08-22T05:26:30.961Z,63.86
2022-08-22T05:29:04.001Z,63.81
2022-08-22T05:31:51.641Z,63.72
2022-08-22T05:34:28.195Z,63.14
2022-08-22T05:37:15.565Z,63.14
2022-08-22T05:39:51.212Z,62.30
2022-08-22T05:42:32.856Z,62.85
2022-08-22T05:45:06.642Z,62.44
2022-08-22T05:47:44.423Z,62.83
2022-08-22T05:50:25.330Z,62.56
2022-08-22T05:53:15.832Z,62.02
2022-08-22T05:56:12.918Z,62.02
2022-08-22T05:58:45.424Z,61.72
2022-08-22T06:01:29.659Z,61.42
2022-08-22T06:04:27.816Z,62.21
2022-08-22T06:07:06.078Z,61.69
2022-08-22T06:09:45.222Z,60.91
2022-08-22T06:12:26.757Z,60.91
2022-08-22T06:15:15.956Z,61.09
2022-08-22T06:17:53.352Z,61.09
2022-08-22T06:20:26.150Z,60.76
2022-08-22T06:23:00.671Z,60.81
2022-08-22T06:25:36.101Z,60.81
2022-08-22T06:28:08.721Z,61.07
2022-08-22T06:30:39.920Z,61.16
2022-08-22T06:33:12.863Z,60.44
2022-08-22T06:36:03.276Z,59.47
2022-08-22T06:38:35.501Z,59.02
2022-08-22T06:41:08.711Z,59.53
2022-08-22T06:43:41.662Z,59.61
2022-08-22T06:46:16.519Z,59.46
2022-08-22T06:48:47.440Z,59.88
2022-08-22T06:51:21.221Z,59.73
2022-08-22T06:53:56.042Z,59.34
2022-08-22T06:56:29.451Z,58.82
2022-08-22T06:59:02.276Z,58.63
2022-08-22T07:01:36.991Z,58.41
2022-08-22T07:04:10.208Z,59.05
2022-08-22T07:06:43.734Z,57.61
2022-08-22T07:09:25.016Z,57.61
2022-08-22T07:11:57.867Z,57.40
2022-08-22T07:14:30.688Z,57.35
2022-08-22T07:17:04.537Z,57.16
2022-08-22T07:19:40.301Z,57.23
2022-08-22T07:22:15.693Z,56.20
2022-08-22T07:24:48.481Z,56.11
2022-08-22T07:27:27.189Z,56.61
2022-08-22T07:30:00.005Z,56.07
2022-08-22T07:32:43.144Z,56.19
2022-08-22T07:35:18.748Z,55.45
2022-08-22T07:37:58.067Z,55.60
2022-08-22T07:40:37.157Z,55.84
2022-08-22T07:43:10.228Z,55.83
2022-08-22T07:45:54.784Z,54.90
2022-08-22T07:48:44.709Z,55.71
2022-08-22T07:51:13.410Z,54.35
2022-08-22T07:53:49.124Z,55.15
2022-08-22T07:56:24.763Z,54.58
2022-08-22T07:59:13.185Z,55.27
2022-08-22T08:01:48.604Z,54.59
2022-08-22T08:04:24.285Z,54.14
2022-08-22T08:06:56.136Z,54.01
2022-08-22T08:09:28.310Z,53.92
2022-08-22T08:12:00.514Z,53.93
2022-08-22T08:14:31.900Z,53.90
2022-08-22T08:17:05.939Z,53.64
2022-08-22T08:19:38.291Z,53.71
2022-08-22T08:22:10.070Z,53.71
2022-08-22T08:24:45.116Z,53.24
2022-08-22T08:27:35.467Z,53.32
2022-08-22T08:30:15.597Z,53.63
2022-08-22T08:32:48.636Z,52.51
2022-08-22T08:35:27.830Z,52.76
2022-08-22T08:38:07.672Z,53.72
2022-08-22T08:40:56.777Z,53.56
2022-08-22T08:43:48.013Z,53.56
2022-08-22T08:46:20.827Z,52.87
2022-08-22T08:49:24.491Z,51.94
2022-08-22T08:52:13.469Z,51.94
2022-08-22T08:54:47.239Z,53.04
2022-08-22T08:57:34.446Z,53.79
2022-08-22T09:00:15.501Z,51.76
2022-08-22T09:02:56.299Z,53.70
2022-08-22T09:05:45.993Z,51.75
2022-08-22T09:08:41.807Z,51.97
2022-08-22T09:11:33.882Z,52.24
2022-08-22T09:14:23.931Z,51.04
2022-08-22T09:17:04.908Z,48.94
2022-08-22T09:19:54.524Z,49.05
2022-08-22T09:22:52.429Z,48.20
2022-08-22T09:25:38.620Z,47.10
2022-08-22T09:28:41.598Z,47.29
2022-08-22T09:31:32.817Z,47.68
2022-08-22T09:34:25.610Z,45.69
2022-08-22T09:37:16.317Z,45.36
2022-08-22T09:40:19.655Z,44.98
2022-08-22T09:43:11.056Z,42.81
2022-08-22T09:46:02.024Z,41.20
2022-08-22T09:48:40.474Z,41.20
2022-08-22T09:51:33.190Z,42.59
2022-08-22T09:54:23.873Z,40.26
2022-08-22T09:57:01.336Z,40.61
2022-08-22T09:59:53.065Z,40.51
2022-08-22T10:02:36.520Z,39.60
2022-08-22T10:05:39.475Z,39.71
2022-08-22T10:08:11.317Z,40.69
2022-08-22T10:10:46.973Z,39.62
2022-08-22T10:13:35.709Z,38.89
2022-08-22T10:16:23.014Z,37.55
2022-08-22T10:19:17.992Z,37.95
2022-08-22T10:22:10.442Z,38.55
2022-08-22T10:24:49.118Z,37.82
2022-08-22T10:27:42.848Z,38.59
2022-08-22T10:30:18.610Z,37.61
2022-08-22T10:32:51.452Z,38.50
2022-08-22T10:35:33.907Z,37.96
2022-08-22T10:38:19.753Z,36.46
2022-08-22T10:41:09.713Z,36.19
2022-08-22T10:43:47.714Z,35.31
2022-08-22T10:49:05.802Z,34.54
2022-08-22T10:51:46.625Z,33.93
2022-08-22T10:54:34.226Z,33.48
2022-08-22T10:57:21.493Z,33.88
2022-08-22T11:00:01.315Z,34.85
2022-08-22T11:02:36.744Z,34.14
2022-08-22T11:05:24.720Z,33.06
2022-08-22T11:07:58.689Z,33.06
2022-08-22T11:10:37.306Z,32.53
2022-08-22T11:13:18.709Z,32.53
2022-08-22T11:16:18.719Z,32.99
2022-08-22T11:19:14.618Z,32.78
2022-08-22T11:21:57.704Z,32.91
2022-08-22T11:24:53.912Z,31.39
2022-08-22T11:27:39.681Z,32.43
2022-08-22T11:30:18.115Z,32.43
2022-08-22T11:33:03.453Z,31.87
2022-08-22T11:35:39.496Z,31.53
2022-08-22T11:38:32.675Z,30.86
2022-08-22T11:41:06.834Z,31.27
2022-08-22T11:43:45.781Z,31.12
2022-08-22T11:46:20.284Z,30.17
2022-08-22T11:49:12.947Z,31.36
2022-08-22T11:52:04.811Z,32.16
2022-08-22T11:55:02.925Z,30.94
2022-08-22T11:57:35.777Z,31.31
2022-08-22T12:00:26.616Z,30.99
2022-08-22T12:03:12.805Z,30.57
2022-08-22T12:05:46.300Z,29.47
2022-08-22T12:08:36.447Z,29.01
2022-08-22T12:11:12.647Z,28.76
2022-08-22T12:14:05.862Z,29.99
2022-08-22T12:16:28.193Z,29.28
2022-08-22T12:19:01.529Z,28.96
2022-08-22T12:21:36.768Z,29.21
2022-08-22T12:24:31.438Z,29.92
2022-08-22T12:30:13.800Z,30.16
2022-08-22T12:32:45.844Z,31.08
2022-08-22T12:35:29.956Z,31.08
2022-08-22T12:38:27.971Z,29.76
2022-08-22T12:41:08.434Z,29.76
2022-08-22T12:43:43.507Z,29.56
2022-08-22T12:46:28.807Z,29.61
2022-08-22T12:49:16.265Z,30.11
2022-08-22T12:52:21.681Z,30.57
2022-08-22T12:55:16.651Z,29.35
2022-08-22T12:58:01.285Z,29.68
2022-08-22T13:00:34.766Z,29.34
2022-08-22T13:03:07.994Z,29.53
2022-08-22T13:05:42.023Z,29.12
2022-08-22T13:08:24.921Z,28.83
2022-08-22T13:11:04.782Z,29.01
2022-08-22T13:13:44.816Z,28.67
2022-08-22T13:16:19.647Z,28.73
2022-08-22T13:18:57.875Z,28.52
2022-08-22T13:21:36.486Z,28.47
2022-08-22T13:24:10.465Z,27.95
2022-08-22T13:26:49.347Z,27.34
2022-08-22T13:29:39.368Z,28.69
2022-08-22T13:32:02.696Z,28.30
2022-08-22T13:34:44.871Z,28.87
2022-08-22T13:37:24.468Z,28.97
2022-08-22T13:39:55.884Z,28.62
2022-08-22T13:42:30.752Z,28.07
2022-08-22T13:45:05.153Z,29.05
2022-08-22T13:47:39.309Z,29.77
2022-08-22T13:50:13.902Z,29.07
2022-08-22T13:52:58.379Z,29.07
2022-08-22T13:55:49.240Z,28.21
2022-08-22T13:58:30.536Z,28.13
2022-08-22T14:01:25.494Z,28.70
2022-08-22T14:03:58.630Z,28.70
2022-08-22T14:06:51.694Z,29.10
2022-08-22T14:09:31.467Z,28.38
2022-08-22T14:12:13.503Z,26.96
2022-08-22T14:14:46.453Z,28.56
2022-08-22T14:17:28.011Z,27.72
2022-08-22T14:20:32.491Z,27.87
2022-08-22T14:22:59.927Z,28.04
2022-08-22T14:25:29.097Z,27.77
2022-08-22T14:28:07.834Z,27.73
2022-08-22T14:30:58.189Z,26.94
2022-08-22T14:33:46.563Z,27.25
2022-08-22T14:36:28.424Z,27.25
2022-08-22T14:39:01.237Z,28.07
2022-08-22T14:41:55.632Z,28.81
2022-08-22T14:44:14.730Z,28.47
2022-08-22T14:46:53.816Z,28.89
2022-08-22T14:49:28.874Z,27.45
2022-08-22T14:52:04.485Z,27.45
2022-08-22T14:54:35.868Z,26.54
2022-08-22T14:57:11.183Z,27.04
2022-08-22T14:59:50.008Z,27.32
2022-08-22T15:02:31.557Z,27.01
2022-08-22T15:05:05.459Z,26.63
2022-08-22T15:07:37.501Z,26.23
2022-08-22T15:10:22.996Z,25.55
2022-08-22T15:12:56.028Z,26.17
2022-08-22T15:15:53.287Z,26.12
2022-08-22T15:18:33.608Z,26.29
2022-08-22T15:21:12.383Z,26.13
2022-08-22T15:23:46.957Z,25.89
2022-08-22T15:26:28.097Z,26.58
2022-08-22T15:29:06.963Z,27.06
2022-08-22T15:31:41.654Z,27.32
2022-08-22T15:34:18.002Z,26.85
2022-08-22T15:37:08.487Z,27.60
2022-08-22T15:39:40.220Z,27.19
2022-08-22T15:42:11.857Z,27.49
2022-08-22T15:44:44.340Z,27.17
2022-08-22T15:47:41.458Z,27.48
2022-08-22T15:50:15.780Z,27.55
2022-08-22T15:53:08.389Z,28.31
2022-08-22T15:55:38.775Z,28.31
2022-08-22T15:58:13.037Z,29.08
2022-08-22T16:00:49.301Z,29.02
2022-08-22T16:03:28.091Z,28.38
2022-08-22T16:06:01.043Z,29.17
2022-08-22T16:08:39.529Z,29.13
2022-08-22T16:11:24.143Z,29.33
2022-08-22T16:14:25.569Z,29.88
2022-08-22T16:17:03.828Z,28.88
2022-08-22T16:19:35.534Z,29.75
2022-08-22T16:22:08.874Z,29.66
2022-08-22T16:24:59.655Z,29.92
2022-08-22T16:27:31.220Z,29.43
2022-08-22T16:30:06.882Z,29.25
2022-08-22T16:32:37.909Z,29.43
2022-08-22T16:35:07.734Z,29.43
2022-08-22T16:37:46.067Z,30.28
2022-08-22T16:40:19.055Z,29.54
2022-08-22T16:42:51.890Z,30.20
2022-08-22T16:45:39.599Z,30.12
2022-08-22T16:48:24.646Z,30.23
2022-08-22T16:51:09.199Z,30.65
2022-08-22T16:54:01.093Z,29.47
2022-08-22T16:56:51.510Z,28.20
2022-08-22T16:59:26.759Z,28.32
2022-08-22T17:02:18.861Z,27.47
2022-08-22T17:05:13.814Z,27.58
2022-08-22T17:07:55.327Z,27.72
2022-08-22T17:10:48.501Z,27.50
2022-08-22T17:13:26.525Z,27.41
2022-08-22T17:16:15.468Z,27.33
2022-08-22T17:18:48.287Z,27.33
2022-08-22T17:21:32.494Z,26.75
2022-08-22T17:24:08.281Z,27.36
2022-08-22T17:26:55.278Z,26.40
2022-08-22T17:29:34.027Z,26.40
2022-08-22T17:32:14.856Z,26.47
2022-08-22T17:34:53.350Z,25.27
2022-08-22T17:37:54.709Z,25.66
2022-08-22T17:40:52.914Z,25.38
2022-08-22T17:43:33.531Z,25.12
2022-08-22T17:46:27.006Z,24.82
2022-08-22T17:49:02.415Z,25.06
2022-08-22T17:51:39.831Z,26.80
2022-08-22T17:54:33.953Z,28.93
2022-08-22T17:57:06.841Z,30.01
2022-08-22T17:59:39.652Z,31.11
2022-08-22T18:02:13.677Z,31.13
2022-08-22T18:04:52.530Z,31.93
2022-08-22T18:07:33.718Z,32.02
2022-08-22T18:10:34.714Z,32.27
2022-08-22T18:13:13.031Z,32.52
2022-08-22T18:15:48.627Z,33.26
2022-08-22T18:18:30.115Z,33.01
2022-08-22T18:21:01.799Z,33.37
2022-08-22T18:23:43.599Z,33.44
2022-08-22T18:26:31.162Z,33.51
2022-08-22T18:29:15.531Z,33.95
2022-08-22T18:31:54.165Z,35.11
2022-08-22T18:34:43.611Z,35.49
2022-08-22T18:37:36.798Z,35.04
2022-08-22T18:40:13.943Z,35.23
2022-08-22T18:42:52.745Z,35.86
2022-08-22T18:45:50.654Z,35.86
2022-08-22T18:48:25.554Z,36.48
2022-08-22T18:51:14.366Z,36.93
2022-08-22T18:53:59.034Z,37.26
2022-08-22T18:56:35.444Z,38.25
2022-08-22T18:59:09.028Z,38.16
2022-08-22T19:02:13.256Z,38.67
2022-08-22T19:05:08.680Z,38.83
2022-08-22T19:07:44.249Z,38.97
2022-08-22T19:10:27.722Z,39.35
2022-08-22T19:13:27.696Z,39.70
2022-08-22T19:16:18.282Z,39.73
2022-08-22T19:19:08.443Z,41.45
2022-08-22T19:21:57.577Z,41.01
2022-08-22T19:24:30.158Z,41.14
2022-08-22T19:27:31.330Z,42.16
2022-08-22T19:30:00.688Z,41.87
2022-08-22T19:32:51.438Z,43.14
2022-08-22T19:35:32.335Z,43.95
2022-08-22T19:38:05.163Z,43.23
2022-08-22T19:40:56.139Z,43.98
2022-08-22T19:43:30.651Z,44.58
2022-08-22T19:46:06.189Z,45.50
2022-08-22T19:48:52.515Z,44.70
2022-08-22T19:51:27.913Z,45.70
2022-08-22T19:54:18.417Z,45.20
2022-08-22T19:57:11.592Z,45.83
2022-08-22T19:59:51.071Z,45.83
2022-08-22T20:02:26.977Z,45.80
2022-08-22T20:05:00.174Z,46.54
2022-08-22T20:07:44.466Z,46.00
2022-08-22T20:10:43.996Z,45.92
2022-08-22T20:13:22.815Z,46.49
2022-08-22T20:16:10.308Z,47.21
2022-08-22T20:19:07.296Z,46.25
2022-08-22T20:21:58.853Z,46.25
2022-08-22T20:24:40.524Z,46.40
2022-08-22T20:27:30.664Z,46.59
2022-08-22T20:30:15.188Z,47.21
2022-08-22T20:32:50.696Z,46.70
2022-08-22T20:35:23.469Z,46.49
2022-08-22T20:38:07.405Z,46.78
2022-08-22T20:40:56.254Z,46.73
2022-08-22T20:43:29.218Z,46.73
2022-08-22T20:46:04.227Z,46.56
2022-08-22T20:48:40.223Z,47.03
2022-08-22T20:51:12.284Z,46.67
2022-08-22T20:53:42.319Z,46.45
2022-08-22T20:56:12.127Z,46.19
2022-08-22T20:58:43.591Z,46.38
2022-08-22T21:01:15.697Z,45.72
2022-08-22T21:03:51.975Z,46.33
2022-08-22T21:06:34.350Z,46.47
2022-08-22T21:09:36.596Z,46.40
2022-08-22T21:12:09.341Z,46.68
2022-08-22T21:14:42.294Z,46.56
2022-08-22T21:17:23.796Z,46.27
2022-08-22T21:19:53.629Z,46.70
2022-08-22T21:22:30.059Z,46.43
2022-08-22T21:25:01.812Z,46.44
2022-08-22T21:27:34.119Z,46.77
2022-08-22T21:30:06.631Z,46.74
2022-08-22T21:32:53.623Z,46.49
2022-08-22T21:35:32.100Z,46.76
2022-08-22T21:38:02.899Z,46.84
2022-08-22T21:40:35.806Z,46.88
2022-08-22T21:43:11.084Z,47.17
2022-08-22T21:45:44.023Z,47.14
2022-08-22T21:48:40.706Z,46.80
2022-08-22T21:51:34.246Z,47.25
2022-08-22T21:54:24.734Z,47.36
2022-08-22T21:59:59.762Z,47.54
2022-08-22T22:02:36.498Z,47.79
2022-08-22T22:05:11.339Z,48.04
2022-08-22T22:07:43.794Z,48.04
2022-08-22T22:10:16.340Z,47.94
2022-08-22T22:12:48.248Z,48.56
2022-08-22T22:15:21.272Z,48.50
2022-08-22T22:17:51.276Z,49.20
2022-08-22T22:20:23.886Z,48.57
2022-08-22T22:22:53.655Z,48.72
2022-08-22T22:25:40.008Z,48.71
2022-08-22T22:27:55.688Z,48.82
2022-08-22T22:30:27.661Z,48.50
2022-08-22T22:32:57.223Z,48.52
2022-08-22T22:35:27.465Z,48.52
2022-08-22T22:37:57.745Z,48.80
2022-08-22T22:40:27.379Z,48.27
2022-08-22T22:42:57.211Z,48.34
2022-08-22T22:45:27.040Z,48.23
2022-08-22T22:47:56.714Z,48.61
2022-08-22T22:50:26.398Z,48.61
2022-08-22T22:52:56.173Z,49.27
2022-08-22T22:55:26.410Z,49.47
2022-08-22T22:57:59.034Z,49.17
2022-08-22T23:00:30.755Z,49.37
2022-08-22T23:03:02.756Z,49.55
2022-08-22T23:05:32.672Z,49.70
2022-08-22T23:08:03.567Z,49.52
2022-08-22T23:10:34.379Z,49.63
2022-08-22T23:13:06.586Z,50.19
2022-08-22T23:15:37.633Z,50.39
2022-08-22T23:18:07.423Z,50.41
2022-08-22T23:20:36.923Z,51.19
2022-08-22T23:23:06.695Z,51.19
2022-08-22T23:25:36.469Z,50.58
2022-08-22T23:28:08.027Z,51.11
2022-08-22T23:30:37.800Z,51.34
2022-08-22T23:33:07.871Z,51.03
2022-08-22T23:35:37.632Z,51.50
2022-08-22T23:38:09.477Z,50.93
2022-08-22T23:40:39.233Z,51.17
2022-08-22T23:43:09.094Z,51.24
2022-08-22T23:45:38.850Z,51.63
2022-08-22T23:48:09.515Z,51.75
2022-08-22T23:50:39.287Z,52.49
2022-08-22T23:53:09.060Z,52.57
2022-08-22T23:55:39.404Z,52.44
2022-08-22T23:58:11.349Z,52.85
